createdAt,value
2018-04-09T00:00:22.081Z,72.86
2018-04-09T00:00:58.736Z,72.38
2018-04-09T00:01:34.415Z,73.44
2018-04-09T00:02:09.804Z,73.54
2018-04-09T00:02:45.115Z,72.29
2018-04-09T00:03:20.670Z,73.05
2018-04-09T00:03:56.190Z,72.67
2018-04-09T00:04:31.669Z,71.08
2018-04-09T00:05:07.441Z,70.60
2018-04-09T00:05:43.561Z,70.70
2018-04-09T00:06:18.948Z,71.66
2018-04-09T00:06:54.220Z,71.27
2018-04-09T00:07:29.507Z,71.75
2018-04-09T00:08:04.901Z,72.99
2018-04-09T00:08:39.990Z,73.09
2018-04-09T00:09:15.438Z,72.52
2018-04-09T00:09:50.923Z,73.19
2018-04-09T00:10:26.492Z,72.99
2018-04-09T00:11:01.823Z,72.99
2018-04-09T00:11:37.681Z,74.05
2018-04-09T00:12:13.233Z,73.86
2018-04-09T00:12:48.468Z,73.19
2018-04-09T00:13:23.507Z,73.19
2018-04-09T00:13:59.182Z,73.19
2018-04-09T00:14:34.975Z,73.66
2018-04-09T00:15:10.267Z,72.52
2018-04-09T00:15:45.989Z,72.99
2018-04-09T00:16:21.517Z,73.34
2018-04-09T00:16:56.775Z,73.76
2018-04-09T00:17:32.089Z,73.95
2018-04-09T00:18:07.114Z,73.15
2018-04-09T00:18:42.751Z,73.09
2018-04-09T00:19:18.077Z,73.44
2018-04-09T00:19:53.586Z,73.86
2018-04-09T00:20:28.990Z,73.47
2018-04-09T00:21:04.611Z,74.15
2018-04-09T00:21:40.204Z,73.24
2018-04-09T00:22:15.446Z,73.24
2018-04-09T00:22:50.889Z,73.44
2018-04-09T00:23:26.152Z,72.67
2018-04-09T00:24:01.193Z,73.15
2018-04-09T00:24:36.624Z,73.72
2018-04-09T00:25:12.145Z,73.91
2018-04-09T00:25:47.721Z,72.96
2018-04-09T00:26:23.008Z,73.15
2018-04-09T00:26:58.208Z,73.38
2018-04-09T00:27:33.459Z,72.29
2018-04-09T00:28:08.758Z,72.67
2018-04-09T00:28:43.899Z,72.77
2018-04-09T00:29:19.213Z,71.04
2018-04-09T00:29:54.619Z,71.33
2018-04-09T00:30:29.859Z,72.77
2018-04-09T00:31:05.085Z,72.86
2018-04-09T00:31:41.275Z,73.15
2018-04-09T00:32:16.772Z,73.63
2018-04-09T00:32:52.113Z,73.72
2018-04-09T00:33:27.444Z,73.24
2018-04-09T00:34:02.690Z,72.86
2018-04-09T00:34:37.987Z,73.63
2018-04-09T00:35:13.112Z,73.24
2018-04-09T00:35:49.179Z,73.91
2018-04-09T00:36:24.292Z,73.54
2018-04-09T00:36:59.494Z,73.91
2018-04-09T00:37:35.130Z,73.44
2018-04-09T00:38:10.485Z,73.82
2018-04-09T00:38:45.742Z,74.11
2018-04-09T00:39:21.199Z,74.65
2018-04-09T00:39:56.565Z,73.54
2018-04-09T00:40:31.912Z,72.19
2018-04-09T00:41:07.240Z,72.19
2018-04-09T00:41:42.549Z,71.33
2018-04-09T00:42:17.974Z,71.52
2018-04-09T00:42:53.365Z,71.14
2018-04-09T00:43:28.512Z,71.42
2018-04-09T00:44:04.104Z,71.23
2018-04-09T00:44:39.894Z,71.14
2018-04-09T00:45:15.246Z,70.95
2018-04-09T00:45:50.418Z,71.23
2018-04-09T00:46:25.628Z,71.01
2018-04-09T00:47:01.132Z,71.71
2018-04-09T00:47:36.337Z,72.38
2018-04-09T00:48:11.645Z,73.91
2018-04-09T00:48:47.237Z,72.38
2018-04-09T00:49:22.644Z,72.48
2018-04-09T00:49:58.241Z,72.38
2018-04-09T00:50:33.930Z,72.00
2018-04-09T00:51:09.208Z,71.42
2018-04-09T00:51:44.542Z,71.20
2018-04-09T00:52:19.833Z,71.39
2018-04-09T00:52:55.451Z,71.48
2018-04-09T00:53:30.958Z,71.58
2018-04-09T00:54:06.499Z,71.58
2018-04-09T00:54:41.857Z,71.87
2018-04-09T00:55:17.166Z,71.77
2018-04-09T00:55:53.267Z,71.77
2018-04-09T00:56:28.911Z,72.77
2018-04-09T00:57:04.263Z,73.88
2018-04-09T00:57:39.766Z,73.59
2018-04-09T00:58:15.191Z,73.40
2018-04-09T00:58:50.377Z,74.16
2018-04-09T00:59:25.622Z,73.97
2018-04-09T01:00:00.857Z,74.65
2018-04-09T01:00:37.258Z,74.74
2018-04-09T01:01:12.504Z,74.26
2018-04-09T01:01:47.506Z,74.65
2018-04-09T01:02:22.970Z,74.74
2018-04-09T01:02:58.623Z,75.22
2018-04-09T01:03:34.055Z,74.84
2018-04-09T01:04:09.467Z,75.22
2018-04-09T01:04:45.241Z,74.74
2018-04-09T01:05:20.844Z,74.84
2018-04-09T01:05:56.176Z,75.51
2018-04-09T01:06:31.534Z,75.60
2018-04-09T01:07:06.667Z,75.22
2018-04-09T01:07:42.228Z,75.89
2018-04-09T01:08:17.382Z,76.08
2018-04-09T01:08:52.948Z,74.93
2018-04-09T01:09:28.325Z,75.89
2018-04-09T01:10:03.325Z,75.60
2018-04-09T01:10:40.213Z,75.60
2018-04-09T01:11:15.579Z,75.89
2018-04-09T01:11:51.054Z,74.84
2018-04-09T01:12:26.743Z,74.65
2018-04-09T01:13:02.336Z,74.93
2018-04-09T01:13:37.690Z,74.74
2018-04-09T01:14:13.122Z,75.51
2018-04-09T01:14:48.612Z,75.89
2018-04-09T01:15:24.121Z,75.41
2018-04-09T01:15:59.630Z,76.08
2018-04-09T01:16:35.039Z,75.51
2018-04-09T01:17:10.604Z,75.89
2018-04-09T01:17:45.924Z,76.18
2018-04-09T01:18:21.057Z,75.98
2018-04-09T01:18:56.397Z,75.22
2018-04-09T01:19:31.638Z,75.41
2018-04-09T01:20:06.980Z,75.22
2018-04-09T01:20:43.850Z,75.12
2018-04-09T01:21:18.977Z,75.85
2018-04-09T01:21:54.442Z,75.70
2018-04-09T01:22:29.902Z,75.31
2018-04-09T01:23:05.993Z,74.41
2018-04-09T01:23:41.116Z,74.80
2018-04-09T01:24:16.430Z,74.70
2018-04-09T01:24:55.259Z,74.61
2018-04-09T01:25:30.525Z,74.51
2018-04-09T01:26:05.643Z,74.16
2018-04-09T01:26:41.358Z,74.65
2018-04-09T01:27:16.968Z,74.74
2018-04-09T01:27:52.493Z,75.37
2018-04-09T01:28:28.067Z,74.84
2018-04-09T01:29:03.323Z,74.51
2018-04-09T01:29:38.756Z,74.22
2018-04-09T01:30:14.014Z,73.97
2018-04-09T01:30:49.335Z,74.61
2018-04-09T01:31:25.104Z,74.80
2018-04-09T01:32:00.621Z,74.41
2018-04-09T01:32:35.919Z,74.80
2018-04-09T01:33:11.364Z,74.22
2018-04-09T01:33:47.802Z,74.22
2018-04-09T01:34:23.490Z,74.22
2018-04-09T01:34:58.782Z,74.99
2018-04-09T01:35:34.114Z,74.70
2018-04-09T01:36:09.216Z,74.04
2018-04-09T01:36:44.566Z,74.80
2018-04-09T01:37:19.747Z,75.18
2018-04-09T01:37:55.169Z,74.90
2018-04-09T01:38:30.545Z,75.27
2018-04-09T01:39:06.004Z,75.37
2018-04-09T01:39:41.728Z,74.70
2018-04-09T01:40:16.968Z,75.18
2018-04-09T01:40:52.298Z,75.09
2018-04-09T01:41:27.617Z,75.27
2018-04-09T01:42:02.855Z,76.14
2018-04-09T01:42:37.991Z,76.04
2018-04-09T01:43:13.225Z,76.14
2018-04-09T01:43:52.679Z,75.85
2018-04-09T01:44:28.112Z,75.66
2018-04-09T01:45:03.355Z,75.85
2018-04-09T01:45:38.827Z,75.85
2018-04-09T01:46:14.127Z,76.23
2018-04-09T01:46:49.629Z,75.76
2018-04-09T01:47:25.074Z,76.33
2018-04-09T01:48:00.703Z,75.95
2018-04-09T01:48:36.565Z,75.37
2018-04-09T01:49:12.121Z,75.95
2018-04-09T01:49:47.667Z,75.56
2018-04-09T01:50:22.934Z,76.23
2018-04-09T01:50:58.389Z,76.04
2018-04-09T01:51:33.716Z,76.14
2018-04-09T01:52:09.318Z,76.04
2018-04-09T01:52:44.657Z,76.33
2018-04-09T01:53:20.067Z,76.52
2018-04-09T01:53:55.334Z,76.62
2018-04-09T01:54:30.589Z,75.66
2018-04-09T01:55:05.959Z,76.23
2018-04-09T01:55:41.370Z,76.62
2018-04-09T01:56:16.981Z,76.33
2018-04-09T01:56:52.460Z,75.95
2018-04-09T01:57:27.640Z,75.09
2018-04-09T01:58:03.114Z,74.70
2018-04-09T01:58:38.535Z,75.76
2018-04-09T01:59:13.795Z,76.00
2018-04-09T01:59:49.031Z,76.39
2018-04-09T02:00:24.143Z,77.06
2018-04-09T02:00:59.659Z,75.62
2018-04-09T02:01:35.161Z,75.85
2018-04-09T02:02:10.462Z,76.39
2018-04-09T02:02:45.907Z,76.77
2018-04-09T02:03:21.417Z,76.29
2018-04-09T02:03:56.782Z,76.67
2018-04-09T02:04:32.171Z,76.39
2018-04-09T02:05:07.426Z,76.29
2018-04-09T02:05:46.461Z,76.57
2018-04-09T02:06:21.884Z,76.96
2018-04-09T02:06:57.323Z,76.86
2018-04-09T02:07:32.696Z,76.29
2018-04-09T02:08:07.937Z,76.71
2018-04-09T02:08:43.499Z,75.71
2018-04-09T02:09:18.731Z,76.96
2018-04-09T02:09:53.872Z,76.57
2018-04-09T02:10:29.341Z,76.48
2018-04-09T02:11:05.285Z,75.71
2018-04-09T02:11:40.691Z,75.62
2018-04-09T02:12:16.217Z,76.67
2018-04-09T02:12:52.513Z,75.43
2018-04-09T02:13:28.200Z,75.81
2018-04-09T02:14:03.503Z,77.15
2018-04-09T02:14:38.824Z,75.91
2018-04-09T02:15:14.502Z,76.77
2018-04-09T02:15:50.816Z,76.29
2018-04-09T02:16:26.507Z,76.48
2018-04-09T02:17:01.822Z,75.71
2018-04-09T02:17:37.328Z,76.67
2018-04-09T02:18:12.672Z,76.29
2018-04-09T02:18:49.018Z,76.48
2018-04-09T02:19:24.806Z,76.00
2018-04-09T02:20:00.155Z,76.57
2018-04-09T02:20:35.922Z,76.57
2018-04-09T02:21:11.705Z,75.81
2018-04-09T02:21:47.940Z,76.48
2018-04-09T02:22:23.055Z,76.00
2018-04-09T02:22:58.563Z,76.29
2018-04-09T02:23:34.177Z,75.91
2018-04-09T02:24:09.815Z,76.29
2018-04-09T02:24:45.657Z,75.81
2018-04-09T02:25:20.784Z,76.96
2018-04-09T02:25:55.821Z,76.48
2018-04-09T02:26:31.440Z,76.67
2018-04-09T02:27:07.390Z,75.71
2018-04-09T02:27:43.452Z,77.06
2018-04-09T02:28:18.709Z,76.20
2018-04-09T02:28:54.384Z,76.39
2018-04-09T02:29:29.716Z,75.14
2018-04-09T02:30:04.960Z,75.62
2018-04-09T02:30:40.484Z,76.20
2018-04-09T02:31:16.134Z,75.81
2018-04-09T02:31:51.846Z,76.48
2018-04-09T02:32:27.006Z,76.20
2018-04-09T02:33:02.076Z,76.10
2018-04-09T02:33:37.656Z,76.20
2018-04-09T02:34:13.260Z,75.81
2018-04-09T02:34:48.713Z,76.48
2018-04-09T02:35:24.207Z,76.39
2018-04-09T02:35:59.672Z,75.91
2018-04-09T02:36:35.370Z,75.91
2018-04-09T02:37:10.746Z,75.91
2018-04-09T02:37:46.556Z,76.48
2018-04-09T02:38:21.916Z,76.86
2018-04-09T02:38:57.480Z,75.62
2018-04-09T02:39:32.599Z,76.57
2018-04-09T02:40:08.300Z,75.62
2018-04-09T02:40:45.925Z,75.14
2018-04-09T02:41:21.240Z,75.91
2018-04-09T02:41:56.471Z,76.57
2018-04-09T02:42:32.051Z,76.29
2018-04-09T02:43:07.777Z,75.91
2018-04-09T02:43:43.293Z,75.05
2018-04-09T02:44:18.859Z,75.81
2018-04-09T02:44:56.864Z,75.71
2018-04-09T02:45:32.032Z,75.52
2018-04-09T02:46:07.592Z,76.96
2018-04-09T02:46:45.276Z,75.78
2018-04-09T02:47:20.498Z,75.87
2018-04-09T02:47:56.035Z,75.14
2018-04-09T02:48:31.324Z,75.87
2018-04-09T02:49:06.814Z,76.00
2018-04-09T02:49:44.939Z,75.68
2018-04-09T02:50:20.298Z,76.29
2018-04-09T02:50:57.338Z,75.24
2018-04-09T02:51:32.837Z,75.68
2018-04-09T02:52:08.446Z,75.39
2018-04-09T02:52:44.206Z,76.25
2018-04-09T02:53:19.409Z,75.68
2018-04-09T02:53:55.081Z,75.59
2018-04-09T02:54:30.831Z,75.81
2018-04-09T02:55:06.203Z,76.06
2018-04-09T02:55:41.659Z,74.91
2018-04-09T02:56:17.196Z,75.30
2018-04-09T02:56:52.613Z,75.20
2018-04-09T02:57:28.011Z,75.87
2018-04-09T02:58:03.486Z,76.16
2018-04-09T02:58:39.246Z,75.49
2018-04-09T02:59:14.495Z,75.96
2018-04-09T02:59:49.834Z,75.01
2018-04-09T03:00:25.095Z,76.00
2018-04-09T03:01:00.558Z,76.16
2018-04-09T03:01:36.187Z,75.78
2018-04-09T03:02:11.618Z,75.59
2018-04-09T03:02:46.936Z,75.49
2018-04-09T03:03:22.273Z,75.20
2018-04-09T03:03:57.419Z,75.59
2018-04-09T03:04:33.180Z,75.30
2018-04-09T03:05:08.552Z,75.10
2018-04-09T03:05:47.947Z,74.63
2018-04-09T03:06:23.258Z,74.73
2018-04-09T03:06:58.749Z,75.59
2018-04-09T03:07:34.392Z,75.30
2018-04-09T03:08:09.597Z,74.63
2018-04-09T03:08:46.161Z,75.30
2018-04-09T03:09:21.699Z,75.20
2018-04-09T03:09:56.904Z,74.63
2018-04-09T03:10:32.051Z,74.05
2018-04-09T03:11:07.064Z,75.30
2018-04-09T03:11:42.413Z,75.49
2018-04-09T03:12:17.796Z,75.96
2018-04-09T03:12:53.125Z,75.01
2018-04-09T03:13:28.457Z,75.39
2018-04-09T03:14:03.853Z,75.20
2018-04-09T03:14:39.472Z,74.63
2018-04-09T03:15:15.320Z,75.39
2018-04-09T03:15:51.645Z,75.39
2018-04-09T03:16:27.146Z,75.30
2018-04-09T03:17:02.687Z,75.10
2018-04-09T03:17:38.039Z,75.16
2018-04-09T03:18:13.731Z,75.30
2018-04-09T03:18:49.195Z,75.16
2018-04-09T03:19:24.879Z,75.20
2018-04-09T03:20:00.221Z,75.54
2018-04-09T03:20:35.880Z,74.98
2018-04-09T03:21:11.520Z,75.49
2018-04-09T03:21:46.741Z,75.39
2018-04-09T03:22:22.129Z,75.26
2018-04-09T03:22:57.526Z,75.26
2018-04-09T03:23:32.932Z,75.07
2018-04-09T03:24:08.663Z,75.26
2018-04-09T03:24:46.469Z,75.26
2018-04-09T03:25:21.683Z,75.01
2018-04-09T03:25:56.941Z,75.35
2018-04-09T03:26:32.186Z,75.07
2018-04-09T03:27:07.499Z,75.26
2018-04-09T03:27:43.007Z,75.16
2018-04-09T03:28:18.345Z,74.69
2018-04-09T03:28:53.483Z,75.16
2018-04-09T03:29:28.950Z,74.69
2018-04-09T03:30:04.470Z,75.26
2018-04-09T03:30:39.833Z,75.26
2018-04-09T03:31:15.121Z,75.35
2018-04-09T03:31:50.461Z,75.26
2018-04-09T03:32:25.675Z,74.98
2018-04-09T03:33:01.126Z,74.98
2018-04-09T03:33:37.443Z,74.69
2018-04-09T03:34:12.987Z,75.07
2018-04-09T03:34:48.188Z,74.88
2018-04-09T03:35:24.226Z,73.44
2018-04-09T03:35:59.868Z,74.59
2018-04-09T03:36:35.734Z,74.02
2018-04-09T03:37:12.586Z,74.59
2018-04-09T03:37:48.128Z,74.21
2018-04-09T03:38:23.358Z,73.54
2018-04-09T03:38:58.705Z,73.35
2018-04-09T03:39:34.208Z,73.83
2018-04-09T03:40:09.442Z,72.68
2018-04-09T03:40:46.888Z,73.92
2018-04-09T03:41:22.247Z,73.44
2018-04-09T03:41:57.559Z,72.87
2018-04-09T03:42:32.801Z,74.49
2018-04-09T03:43:08.309Z,73.54
2018-04-09T03:43:43.563Z,73.73
2018-04-09T03:44:18.769Z,73.73
2018-04-09T03:44:57.622Z,72.39
2018-04-09T03:45:33.043Z,74.11
2018-04-09T03:46:08.256Z,73.35
2018-04-09T03:46:43.576Z,73.25
2018-04-09T03:47:19.019Z,74.59
2018-04-09T03:47:54.121Z,73.54
2018-04-09T03:48:29.463Z,73.54
2018-04-09T03:49:04.714Z,73.16
2018-04-09T03:49:40.186Z,73.54
2018-04-09T03:50:15.645Z,74.02
2018-04-09T03:50:51.362Z,74.11
2018-04-09T03:51:27.089Z,74.02
2018-04-09T03:52:02.846Z,73.92
2018-04-09T03:52:38.256Z,74.11
2018-04-09T03:53:13.818Z,72.87
2018-04-09T03:53:49.268Z,74.88
2018-04-09T03:54:24.407Z,73.92
2018-04-09T03:54:59.492Z,72.58
2018-04-09T03:55:34.857Z,72.01
2018-04-09T03:56:11.050Z,74.69
2018-04-09T03:56:46.191Z,74.11
2018-04-09T03:57:21.696Z,74.11
2018-04-09T03:57:57.227Z,74.11
2018-04-09T03:58:32.232Z,74.11
2018-04-09T03:59:07.738Z,74.11
2018-04-09T03:59:42.946Z,74.11
2018-04-09T04:00:18.087Z,73.44
2018-04-09T04:00:55.539Z,72.30
2018-04-09T04:01:30.794Z,73.63
2018-04-09T04:02:06.295Z,73.63
2018-04-09T04:02:42.547Z,74.11
2018-04-09T04:03:17.864Z,72.97
2018-04-09T04:03:52.990Z,72.20
2018-04-09T04:04:28.499Z,73.44
2018-04-09T04:05:03.841Z,73.73
2018-04-09T04:05:39.146Z,73.16
2018-04-09T04:06:14.484Z,72.20
2018-04-09T04:06:49.798Z,74.02
2018-04-09T04:07:24.968Z,72.30
2018-04-09T04:08:00.480Z,73.07
2018-04-09T04:08:35.743Z,72.68
2018-04-09T04:09:11.084Z,73.07
2018-04-09T04:09:46.735Z,72.20
2018-04-09T04:10:22.283Z,73.63
2018-04-09T04:10:58.660Z,72.20
2018-04-09T04:11:34.113Z,72.30
2018-04-09T04:12:09.462Z,72.97
2018-04-09T04:12:44.863Z,72.58
2018-04-09T04:13:19.903Z,72.11
2018-04-09T04:13:55.142Z,73.63
2018-04-09T04:14:30.666Z,72.87
2018-04-09T04:15:05.966Z,71.44
2018-04-09T04:15:43.102Z,72.11
2018-04-09T04:16:18.321Z,72.20
2018-04-09T04:16:54.064Z,72.20
2018-04-09T04:17:29.348Z,72.17
2018-04-09T04:18:04.399Z,71.25
2018-04-09T04:18:40.746Z,71.72
2018-04-09T04:19:16.216Z,71.72
2018-04-09T04:19:51.342Z,72.87
2018-04-09T04:20:26.687Z,72.97
2018-04-09T04:21:02.198Z,71.63
2018-04-09T04:21:37.562Z,70.87
2018-04-09T04:22:12.905Z,72.30
2018-04-09T04:22:48.293Z,71.72
2018-04-09T04:23:23.343Z,71.25
2018-04-09T04:23:58.694Z,71.15
2018-04-09T04:24:33.933Z,71.34
2018-04-09T04:25:09.288Z,70.92
2018-04-09T04:25:46.087Z,71.34
2018-04-09T04:26:21.541Z,71.41
2018-04-09T04:26:56.896Z,70.45
2018-04-09T04:27:32.327Z,70.73
2018-04-09T04:28:07.858Z,71.41
2018-04-09T04:28:44.229Z,70.45
2018-04-09T04:29:19.678Z,70.83
2018-04-09T04:29:55.231Z,71.41
2018-04-09T04:30:30.854Z,70.54
2018-04-09T04:31:06.095Z,70.64
2018-04-09T04:31:42.372Z,71.02
2018-04-09T04:32:17.755Z,70.26
2018-04-09T04:32:52.981Z,70.83
2018-04-09T04:33:28.213Z,70.26
2018-04-09T04:34:03.563Z,69.68
2018-04-09T04:34:39.717Z,69.68
2018-04-09T04:35:15.022Z,69.40
2018-04-09T04:35:50.534Z,70.73
2018-04-09T04:36:25.741Z,68.73
2018-04-09T04:37:01.165Z,70.36
2018-04-09T04:37:36.466Z,69.97
2018-04-09T04:38:11.620Z,68.73
2018-04-09T04:38:46.942Z,69.97
2018-04-09T04:39:22.504Z,70.73
2018-04-09T04:39:57.716Z,70.45
2018-04-09T04:40:32.754Z,69.97
2018-04-09T04:41:07.862Z,70.83
2018-04-09T04:41:43.124Z,70.45
2018-04-09T04:42:18.557Z,70.16
2018-04-09T04:42:53.921Z,70.45
2018-04-09T04:43:29.055Z,69.49
2018-04-09T04:44:04.348Z,70.36
2018-04-09T04:44:40.670Z,71.02
2018-04-09T04:45:16.422Z,69.78
2018-04-09T04:45:53.633Z,70.54
2018-04-09T04:46:28.783Z,70.45
2018-04-09T04:47:04.286Z,70.73
2018-04-09T04:47:39.963Z,70.83
2018-04-09T04:48:15.471Z,70.26
2018-04-09T04:48:50.809Z,68.06
2018-04-09T04:49:25.969Z,70.64
2018-04-09T04:50:01.300Z,70.64
2018-04-09T04:50:36.835Z,71.02
2018-04-09T04:51:12.392Z,70.16
2018-04-09T04:51:47.708Z,70.54
2018-04-09T04:52:23.363Z,71.78
2018-04-09T04:52:58.891Z,70.92
2018-04-09T04:53:34.244Z,70.73
2018-04-09T04:54:09.691Z,69.97
2018-04-09T04:54:44.912Z,69.40
2018-04-09T04:55:20.413Z,69.31
2018-04-09T04:55:55.934Z,69.68
2018-04-09T04:56:31.530Z,70.07
2018-04-09T04:57:06.960Z,70.36
2018-04-09T04:57:42.463Z,70.26
2018-04-09T04:58:17.623Z,69.68
2018-04-09T04:58:52.743Z,70.73
2018-04-09T04:59:28.293Z,69.59
2018-04-09T05:00:03.397Z,69.59
2018-04-09T05:00:42.668Z,68.92
2018-04-09T05:01:17.879Z,70.64
2018-04-09T05:01:53.430Z,69.02
2018-04-09T05:02:28.856Z,69.68
2018-04-09T05:03:04.125Z,69.78
2018-04-09T05:03:39.134Z,68.26
2018-04-09T05:04:14.409Z,68.06
2018-04-09T05:04:49.533Z,69.49
2018-04-09T05:05:25.067Z,68.92
2018-04-09T05:06:00.372Z,67.97
2018-04-09T05:06:35.722Z,68.73
2018-04-09T05:07:10.839Z,68.73
2018-04-09T05:07:46.314Z,69.59
2018-04-09T05:08:21.609Z,69.31
2018-04-09T05:08:56.895Z,69.11
2018-04-09T05:09:32.329Z,69.40
2018-04-09T05:10:07.518Z,69.31
2018-04-09T05:10:42.853Z,67.68
2018-04-09T05:11:18.282Z,68.54
2018-04-09T05:11:53.803Z,67.58
2018-04-09T05:12:29.157Z,67.97
2018-04-09T05:13:04.546Z,68.06
2018-04-09T05:13:40.080Z,67.87
2018-04-09T05:14:15.327Z,67.87
2018-04-09T05:14:50.675Z,68.06
2018-04-09T05:15:26.189Z,67.40
2018-04-09T05:16:01.950Z,68.82
2018-04-09T05:16:38.652Z,68.44
2018-04-09T05:17:13.881Z,68.06
2018-04-09T05:17:49.084Z,68.26
2018-04-09T05:18:24.420Z,67.40
2018-04-09T05:18:59.647Z,68.35
2018-04-09T05:19:34.980Z,67.68
2018-04-09T05:20:10.291Z,69.40
2018-04-09T05:20:45.648Z,69.02
2018-04-09T05:21:20.981Z,67.87
2018-04-09T05:21:56.841Z,67.68
2018-04-09T05:22:32.184Z,67.49
2018-04-09T05:23:07.528Z,67.87
2018-04-09T05:23:43.562Z,66.25
2018-04-09T05:24:18.905Z,68.73
2018-04-09T05:24:55.736Z,66.44
2018-04-09T05:25:31.355Z,68.44
2018-04-09T05:26:06.673Z,67.68
2018-04-09T05:26:41.819Z,68.76
2018-04-09T05:27:17.175Z,68.67
2018-04-09T05:27:52.504Z,66.66
2018-04-09T05:28:27.927Z,68.96
2018-04-09T05:29:03.494Z,67.43
2018-04-09T05:29:38.927Z,67.81
2018-04-09T05:30:14.270Z,67.52
2018-04-09T05:30:49.578Z,68.48
2018-04-09T05:31:24.831Z,68.10
2018-04-09T05:32:00.399Z,66.76
2018-04-09T05:32:36.134Z,66.95
2018-04-09T05:33:11.443Z,67.05
2018-04-09T05:33:49.176Z,66.95
2018-04-09T05:34:24.226Z,67.24
2018-04-09T05:34:59.750Z,69.72
2018-04-09T05:35:35.282Z,68.48
2018-04-09T05:36:10.555Z,67.43
2018-04-09T05:36:45.965Z,67.71
2018-04-09T05:37:21.332Z,67.24
2018-04-09T05:37:56.884Z,68.57
2018-04-09T05:38:32.333Z,68.48
2018-04-09T05:39:07.547Z,69.76
2018-04-09T05:39:42.902Z,68.51
2018-04-09T05:40:18.103Z,67.33
2018-04-09T05:40:54.744Z,69.47
2018-04-09T05:41:30.072Z,70.61
2018-04-09T05:42:05.311Z,69.76
2018-04-09T05:42:40.426Z,68.23
2018-04-09T05:43:16.103Z,68.99
2018-04-09T05:43:51.438Z,70.04
2018-04-09T05:44:26.817Z,70.04
2018-04-09T05:45:02.113Z,70.04
2018-04-09T05:45:37.648Z,69.56
2018-04-09T05:46:13.511Z,69.76
2018-04-09T05:46:48.847Z,70.33
2018-04-09T05:47:24.047Z,70.42
2018-04-09T05:47:59.707Z,70.33
2018-04-09T05:48:35.032Z,69.85
2018-04-09T05:49:10.510Z,70.33
2018-04-09T05:49:47.126Z,70.23
2018-04-09T05:50:22.373Z,69.66
2018-04-09T05:50:57.785Z,69.66
2018-04-09T05:51:33.162Z,70.42
2018-04-09T05:52:08.485Z,68.90
2018-04-09T05:52:43.835Z,70.33
2018-04-09T05:53:19.350Z,70.36
2018-04-09T05:53:55.225Z,68.90
2018-04-09T05:54:30.572Z,69.85
2018-04-09T05:55:06.016Z,69.37
2018-04-09T05:55:41.897Z,70.14
2018-04-09T05:56:17.582Z,70.04
2018-04-09T05:56:53.002Z,69.37
2018-04-09T05:57:28.350Z,69.66
2018-04-09T05:58:03.471Z,69.76
2018-04-09T05:58:38.813Z,69.37
2018-04-09T05:59:14.261Z,69.95
2018-04-09T05:59:49.620Z,69.27
2018-04-09T06:00:25.007Z,69.56
2018-04-09T06:01:00.255Z,69.85
2018-04-09T06:01:35.577Z,69.47
2018-04-09T06:02:10.835Z,69.56
2018-04-09T06:02:46.457Z,68.99
2018-04-09T06:03:21.805Z,69.56
2018-04-09T06:03:57.273Z,69.37
2018-04-09T06:04:32.735Z,69.60
2018-04-09T06:05:08.284Z,69.89
2018-04-09T06:05:43.654Z,69.50
2018-04-09T06:06:19.277Z,69.70
2018-04-09T06:06:55.032Z,69.47
2018-04-09T06:07:30.463Z,69.66
2018-04-09T06:08:05.927Z,69.37
2018-04-09T06:08:42.254Z,70.04
2018-04-09T06:09:17.522Z,69.79
2018-04-09T06:09:53.131Z,69.70
2018-04-09T06:10:28.394Z,69.50
2018-04-09T06:11:03.730Z,69.41
2018-04-09T06:11:39.082Z,69.60
2018-04-09T06:12:14.521Z,69.79
2018-04-09T06:12:50.016Z,69.70
2018-04-09T06:13:25.315Z,70.07
2018-04-09T06:14:00.988Z,69.50
2018-04-09T06:14:36.445Z,69.79
2018-04-09T06:15:11.840Z,70.01
2018-04-09T06:15:49.432Z,70.21
2018-04-09T06:16:24.900Z,70.40
2018-04-09T06:17:00.444Z,70.40
2018-04-09T06:17:35.888Z,70.30
2018-04-09T06:18:11.290Z,70.91
2018-04-09T06:18:47.086Z,70.43
2018-04-09T06:19:22.620Z,70.24
2018-04-09T06:19:57.976Z,71.01
2018-04-09T06:20:33.122Z,71.30
2018-04-09T06:21:08.798Z,71.01
2018-04-09T06:21:44.741Z,70.72
2018-04-09T06:22:20.313Z,70.91
2018-04-09T06:22:55.441Z,70.85
2018-04-09T06:23:30.924Z,71.14
2018-04-09T06:24:06.253Z,70.76
2018-04-09T06:24:41.636Z,70.76
2018-04-09T06:25:16.755Z,71.62
2018-04-09T06:25:53.040Z,71.04
2018-04-09T06:26:28.259Z,71.46
2018-04-09T06:27:03.898Z,71.94
2018-04-09T06:27:39.700Z,70.89
2018-04-09T06:28:15.471Z,70.92
2018-04-09T06:28:50.789Z,71.21
2018-04-09T06:29:26.243Z,70.92
2018-04-09T06:30:01.448Z,71.02
2018-04-09T06:30:37.084Z,70.64
2018-04-09T06:31:12.703Z,71.31
2018-04-09T06:31:47.837Z,70.29
2018-04-09T06:32:23.359Z,71.15
2018-04-09T06:32:58.815Z,70.57
2018-04-09T06:33:34.027Z,70.09
2018-04-09T06:34:09.405Z,70.76
2018-04-09T06:34:44.953Z,70.67
2018-04-09T06:35:20.444Z,70.86
2018-04-09T06:35:55.790Z,70.61
2018-04-09T06:36:31.294Z,70.90
2018-04-09T06:37:06.834Z,70.51
2018-04-09T06:37:44.147Z,70.03
2018-04-09T06:38:18.607Z,70.03
2018-04-09T06:38:54.435Z,69.93
2018-04-09T06:39:30.296Z,70.55
2018-04-09T06:40:05.889Z,70.03
2018-04-09T06:40:43.478Z,70.03
2018-04-09T06:41:18.947Z,70.03
2018-04-09T06:41:54.214Z,70.07
2018-04-09T06:42:29.616Z,69.78
2018-04-09T06:43:05.842Z,69.49
2018-04-09T06:43:41.209Z,70.03
2018-04-09T06:44:17.273Z,70.13
2018-04-09T06:44:52.708Z,70.42
2018-04-09T06:45:27.965Z,70.64
2018-04-09T06:46:04.476Z,70.17
2018-04-09T06:46:39.941Z,70.07
2018-04-09T06:47:15.330Z,69.87
2018-04-09T06:47:50.880Z,70.17
2018-04-09T06:48:26.216Z,69.40
2018-04-09T06:49:01.681Z,69.62
2018-04-09T06:49:37.371Z,69.87
2018-04-09T06:50:12.884Z,69.20
2018-04-09T06:50:49.067Z,70.07
2018-04-09T06:51:24.375Z,69.68
2018-04-09T06:51:59.703Z,69.59
2018-04-09T06:52:35.455Z,70.10
2018-04-09T06:53:10.734Z,69.53
2018-04-09T06:53:46.251Z,69.43
2018-04-09T06:54:21.576Z,69.20
2018-04-09T06:54:56.914Z,69.40
2018-04-09T06:55:32.286Z,69.43
2018-04-09T06:56:07.507Z,69.34
2018-04-09T06:56:43.064Z,69.72
2018-04-09T06:57:18.408Z,69.53
2018-04-09T06:57:54.062Z,69.34
2018-04-09T06:58:29.353Z,69.37
2018-04-09T06:59:04.815Z,69.08
2018-04-09T06:59:40.649Z,69.08
2018-04-09T07:00:16.317Z,68.51
2018-04-09T07:00:51.654Z,69.05
2018-04-09T07:01:27.230Z,69.08
2018-04-09T07:02:02.734Z,68.60
2018-04-09T07:02:38.284Z,68.51
2018-04-09T07:03:13.978Z,68.37
2018-04-09T07:03:49.233Z,68.47
2018-04-09T07:04:24.811Z,69.24
2018-04-09T07:05:00.381Z,69.34
2018-04-09T07:05:36.029Z,69.87
2018-04-09T07:06:11.372Z,69.49
2018-04-09T07:06:46.590Z,69.68
2018-04-09T07:07:22.035Z,69.34
2018-04-09T07:07:57.410Z,69.53
2018-04-09T07:08:32.925Z,69.30
2018-04-09T07:09:08.388Z,69.24
2018-04-09T07:09:43.733Z,69.91
2018-04-09T07:10:19.150Z,69.68
2018-04-09T07:10:54.893Z,69.24
2018-04-09T07:11:30.246Z,69.49
2018-04-09T07:12:05.788Z,69.68
2018-04-09T07:12:41.113Z,69.40
2018-04-09T07:13:16.579Z,69.43
2018-04-09T07:13:51.895Z,69.43
2018-04-09T07:14:27.171Z,69.43
2018-04-09T07:15:02.605Z,69.62
2018-04-09T07:15:37.970Z,68.66
2018-04-09T07:16:13.104Z,68.95
2018-04-09T07:16:48.481Z,68.85
2018-04-09T07:17:23.813Z,68.95
2018-04-09T07:17:58.965Z,68.95
2018-04-09T07:18:34.435Z,68.70
2018-04-09T07:19:09.712Z,69.08
2018-04-09T07:19:45.435Z,68.41
2018-04-09T07:20:20.782Z,68.51
2018-04-09T07:20:56.104Z,68.12
2018-04-09T07:21:31.501Z,67.54
2018-04-09T07:22:06.728Z,67.58
2018-04-09T07:22:42.310Z,67.38
2018-04-09T07:23:17.528Z,67.25
2018-04-09T07:23:52.801Z,67.38
2018-04-09T07:24:28.447Z,67.03
2018-04-09T07:25:04.841Z,66.36
2018-04-09T07:25:40.254Z,66.01
2018-04-09T07:26:15.993Z,65.53
2018-04-09T07:26:51.437Z,64.76
2018-04-09T07:27:26.602Z,64.21
2018-04-09T07:28:02.042Z,64.31
2018-04-09T07:28:37.285Z,64.34
2018-04-09T07:29:12.739Z,63.85
2018-04-09T07:29:48.071Z,64.28
2018-04-09T07:30:23.719Z,63.02
2018-04-09T07:30:59.320Z,62.41
2018-04-09T07:31:34.897Z,63.02
2018-04-09T07:32:10.142Z,63.09
2018-04-09T07:32:45.348Z,63.70
2018-04-09T07:33:20.692Z,63.31
2018-04-09T07:33:55.939Z,63.47
2018-04-09T07:34:31.213Z,63.92
2018-04-09T07:35:06.440Z,64.31
2018-04-09T07:35:42.405Z,64.98
2018-04-09T07:36:18.041Z,65.27
2018-04-09T07:36:53.308Z,65.37
2018-04-09T07:37:29.067Z,65.75